Time,TemperatureF,DewpointF,PressureIn,WindDirection,WindDirectionDegrees,WindSpeedMPH,WindSpeedGustMPH,Humidity,HourlyPrecipIn,Conditions,Clouds,dailyrainin,SoftwareType,DateUTC
2013-01-01 00:03:00,37.6,35.5,29.99,North,9,1.0,5.0,92,0.00,,,0.00,VWS V14.00,2013-01-01 06:03:00,
2013-01-01 00:13:00,37.8,35.7,29.99,North,9,4.0,6.0,92,0.00,,,0.00,VWS V14.00,2013-01-01 06:13:00,
2013-01-01 00:18:00,37.6,35.5,29.99,North,9,3.0,7.0,92,0.00,,,0.00,VWS V14.00,2013-01-01 06:18:00,
2013-01-01 00:23:00,37.6,35.5,29.99,North,5,4.0,7.0,92,0.00,,,0.00,VWS V14.00,2013-01-01 06:23:00,
2013-01-01 00:28:00,37.6,35.5,29.99,North,5,2.0,7.0,92,0.00,,,0.00,VWS V14.00,2013-01-01 06:28:00,
2013-01-01 00:38:00,37.5,35.4,29.98,North,5,3.0,5.0,92,0.00,,,0.00,VWS V14.00,2013-01-01 06:38:00,
2013-01-01 00:43:00,37.5,35.4,29.98,North,5,4.0,6.0,92,0.00,,,0.00,VWS V14.00,2013-01-01 06:43:00,
2013-01-01 00:48:00,37.5,35.4,29.99,North,360,1.0,6.0,92,0.00,,,0.00,VWS V14.00,2013-01-01 06:48:00,
2013-01-01 00:53:00,37.5,35.4,29.99,North,5,5.0,7.0,92,0.00,,,0.00,VWS V14.00,2013-01-01 06:53:00,
2013-01-01 01:03:00,37.5,35.4,29.99,NNE,14,4.0,7.0,92,0.00,,,0.00,VWS V14.00,2013-01-01 07:03:00,
2013-01-01 01:08:00,37.5,35.4,29.99,NNE,14,3.0,6.0,92,0.00,,,0.00,VWS V14.00,2013-01-01 07:08:00,
2013-01-01 01:13:00,37.5,35.4,29.99,North,5,3.0,7.0,92,0.00,,,0.00,VWS V14.00,2013-01-01 07:13:00,
2013-01-01 01:23:00,37.5,35.4,29.99,NNE,13,5.0,6.0,92,0.00,,,0.00,VWS V14.00,2013-01-01 07:23:00,
2013-01-01 01:28:00,37.5,35.4,29.99,NNE,13,3.0,6.0,92,0.00,,,0.00,VWS V14.00,2013-01-01 07:28:00,
2013-01-01 01:33:00,37.5,35.4,29.99,NNE,14,3.0,5.0,92,0.00,,,0.00,VWS V14.00,2013-01-01 07:33:00,
2013-01-01 01:38:00,37.5,35.4,29.99,NNE,14,5.0,7.0,92,0.00,,,0.00,VWS V14.00,2013-01-01 07:38:00,
2013-01-01 01:48:00,37.5,35.4,29.99,North,5,4.0,8.0,92,0.00,,,0.00,VWS V14.00,2013-01-01 07:48:00,
2013-01-01 01:53:00,37.5,35.4,29.99,North,360,2.0,7.0,92,0.00,,,0.00,VWS V14.00,2013-01-01 07:53:00,
2013-01-01 01:58:00,37.5,35.4,29.99,North,360,4.0,7.0,92,0.00,,,0.00,VWS V14.00,2013-01-01 07:58:00,
2013-01-01 02:03:00,37.3,35.2,30.00,North,360,4.0,8.0,92,0.00,,,0.00,VWS V14.00,2013-01-01 08:03:00,
2013-01-01 02:08:00,37.3,35.2,30.00,North,360,3.0,8.0,92,0.00,,,0.00,VWS V14.00,2013-01-01 08:08:00,
2013-01-01 02:18:00,37.0,34.9,30.01,North,355,6.0,7.0,92,0.00,,,0.00,VWS V14.00,2013-01-01 08:18:00,
2013-01-01 02:28:00,37.0,34.9,30.01,North,355,2.0,6.0,92,0.00,,,0.00,VWS V14.00,2013-01-01 08:28:00,
2013-01-01 02:33:00,37.0,34.9,30.02,North,355,5.0,7.0,92,0.00,,,0.00,VWS V14.00,2013-01-01 08:33:00,
2013-01-01 02:38:00,36.8,34.7,30.02,North,355,4.0,8.0,92,0.00,,,0.00,VWS V14.00,2013-01-01 08:38:00,
2013-01-01 02:48:00,36.5,34.4,30.02,North,350,5.0,9.0,92,0.00,,,0.00,VWS V14.00,2013-01-01 08:48:00,
2013-01-01 02:53:00,36.3,34.2,30.02,North,355,6.0,8.0,92,0.00,,,0.00,VWS V14.00,2013-01-01 08:53:00,
2013-01-01 02:58:00,36.2,34.1,30.02,NNW,346,4.0,10.0,92,0.00,,,0.00,VWS V14.00,2013-01-01 08:58:00,
2013-01-01 03:03:00,36.0,33.9,30.02,NNW,346,6.0,10.0,92,0.00,,,0.00,VWS V14.00,2013-01-01 09:03:00,
2013-01-01 03:08:00,36.0,33.9,30.02,NNW,347,2.0,10.0,92,0.00,,,0.00,VWS V14.00,2013-01-01 09:08:00,
2013-01-01 03:13:00,36.0,33.9,30.02,North,355,5.0,11.0,92,0.00,,,0.00,VWS V14.00,2013-01-01 09:13:00,
2013-01-01 03:23:00,36.0,33.9,30.01,North,360,5.0,9.0,92,0.00,,,0.00,VWS V14.00,2013-01-01 09:23:00,
2013-01-01 03:28:00,36.0,33.9,30.01,North,350,7.0,10.0,92,0.00,,,0.00,VWS V14.00,2013-01-01 09:28:00,
2013-01-01 03:33:00,36.0,33.9,30.01,North,360,6.0,10.0,92,0.00,,,0.00,VWS V14.00,2013-01-01 09:33:00,
2013-01-01 03:38:00,36.0,33.9,30.01,North,355,5.0,11.0,92,0.00,,,0.00,VWS V14.00,2013-01-01 09:38:00,
2013-01-01 03:43:00,36.0,33.9,30.01,North,355,4.0,10.0,92,0.00,,,0.00,VWS V14.00,2013-01-01 09:43:00,
2013-01-01 03:48:00,36.0,33.9,30.00,NNW,348,8.0,9.0,92,0.00,,,0.00,VWS V14.00,2013-01-01 09:48:00,
2013-01-01 03:53:00,36.0,33.9,30.00,North,360,5.0,10.0,92,0.00,,,0.00,VWS V14.00,2013-01-01 09:53:00,
2013-01-01 04:03:00,36.0,33.9,30.00,NNE,15,5.0,7.0,92,0.00,,,0.00,VWS V14.00,2013-01-01 10:03:00,
2013-01-01 04:08:00,36.0,33.9,30.00,North,5,5.0,6.0,92,0.00,,,0.00,VWS V14.00,2013-01-01 10:08:00,
2013-01-01 04:13:00,36.0,33.9,30.00,North,360,4.0,7.0,92,0.00,,,0.00,VWS V14.00,2013-01-01 10:13:00,
2013-01-01 04:18:00,36.0,34.2,30.01,North,5,4.0,9.0,93,0.00,,,0.00,VWS V14.00,2013-01-01 10:18:00,
2013-01-01 04:23:00,36.2,34.4,30.01,North,360,3.0,7.0,93,0.00,,,0.00,VWS V14.00,2013-01-01 10:23:00,
2013-01-01 04:28:00,36.2,34.4,30.01,North,355,3.0,6.0,93,0.00,,,0.00,VWS V14.00,2013-01-01 10:28:00,
2013-01-01 04:33:00,36.2,34.4,30.02,NNE,18,3.0,5.0,93,0.00,,,0.00,VWS V14.00,2013-01-01 10:33:00,
2013-01-01 04:38:00,36.2,34.4,30.02,North,10,2.0,6.0,93,0.00,,,0.00,VWS V14.00,2013-01-01 10:38:00,
2013-01-01 04:43:00,36.2,34.4,30.02,North,11,4.0,7.0,93,0.00,,,0.00,VWS V14.00,2013-01-01 10:43:00,
2013-01-01 04:48:00,36.2,34.4,30.02,North,355,7.0,8.0,93,0.00,,,0.00,VWS V14.00,2013-01-01 10:48:00,
2013-01-01 04:53:00,36.2,34.4,30.02,North,350,9.0,9.0,93,0.00,,,0.00,VWS V14.00,2013-01-01 10:53:00,
2013-01-01 04:58:00,36.2,34.4,30.02,North,11,5.0,11.0,93,0.00,,,0.00,VWS V14.00,2013-01-01 10:58:00,
2013-01-01 05:03:00,36.0,34.2,30.02,North,5,4.0,10.0,93,0.00,,,0.00,VWS V14.00,2013-01-01 11:03:00,
2013-01-01 05:08:00,35.9,34.1,30.02,NE,34,6.0,9.0,93,0.00,,,0.00,VWS V14.00,2013-01-01 11:08:00,
2013-01-01 05:13:00,35.9,34.1,30.02,North,355,5.0,9.0,93,0.00,,,0.00,VWS V14.00,2013-01-01 11:13:00,
2013-01-01 05:18:00,35.9,34.1,30.02,NNE,22,3.0,8.0,93,0.00,,,0.00,VWS V14.00,2013-01-01 11:18:00,
2013-01-01 05:23:00,35.9,34.1,30.02,NNE,12,4.0,7.0,93,0.00,,,0.00,VWS V14.00,2013-01-01 11:23:00,
2013-01-01 05:28:00,35.9,34.1,30.02,North,11,4.0,9.0,93,0.00,,,0.00,VWS V14.00,2013-01-01 11:28:00,
2013-01-01 05:33:00,35.9,34.1,30.02,NNE,15,1.0,6.0,93,0.00,,,0.00,VWS V14.00,2013-01-01 11:33:00,
2013-01-01 05:38:00,35.9,34.1,30.02,ENE,57,2.0,7.0,93,0.00,,,0.00,VWS V14.00,2013-01-01 11:38:00,
2013-01-01 05:43:00,35.9,34.1,30.02,NNE,15,5.0,7.0,93,0.00,,,0.00,VWS V14.00,2013-01-01 11:43:00,
2013-01-01 05:48:00,35.9,34.1,30.02,North,10,6.0,7.0,93,0.00,,OVC012,0.00,VWS V14.00,2013-01-01 11:48:00,
2013-01-01 05:53:00,35.9,34.1,30.02,North,360,8.0,8.0,93,0.00,,OVC012,0.00,VWS V14.00,2013-01-01 11:53:00,
2013-01-01 05:58:00,35.9,34.1,30.02,NNE,22,3.0,10.0,93,0.00,,OVC012,0.00,VWS V14.00,2013-01-01 11:58:00,
2013-01-01 06:03:00,35.8,34.0,30.01,NNE,15,5.0,11.0,93,0.00,,OVC012,0.00,VWS V14.00,2013-01-01 12:03:00,
2013-01-01 06:08:00,35.8,34.0,30.01,NNE,28,7.0,10.0,93,0.00,,OVC012,0.00,VWS V14.00,2013-01-01 12:08:00,
2013-01-01 06:13:00,35.6,33.8,30.01,NNE,15,5.0,9.0,93,0.00,,OVC012,0.00,VWS V14.00,2013-01-01 12:13:00,
2013-01-01 06:23:00,35.5,33.7,30.04,North,360,4.0,9.0,93,0.00,,OVC012,0.00,VWS V14.00,2013-01-01 12:23:00,
2013-01-01 06:28:00,35.5,33.7,30.04,North,9,7.0,13.0,93,0.00,,OVC012,0.00,VWS V14.00,2013-01-01 12:28:00,
2013-01-01 06:33:00,35.3,33.5,30.04,North,5,5.0,10.0,93,0.00,,OVC012,0.00,VWS V14.00,2013-01-01 12:33:00,
2013-01-01 06:43:00,35.2,33.4,30.04,NNE,33,9.0,12.0,93,0.00,,OVC012,0.00,VWS V14.00,2013-01-01 12:43:00,
2013-01-01 06:48:00,35.0,33.2,30.02,North,5,10.0,14.0,93,0.00,,OVC007,0.00,VWS V14.00,2013-01-01 12:48:00,
2013-01-01 06:53:00,35.0,33.2,30.02,North,9,4.0,13.0,93,0.00,,OVC007,0.00,VWS V14.00,2013-01-01 12:53:00,
2013-01-01 06:58:00,35.0,33.2,30.02,North,5,5.0,12.0,93,0.00,,OVC007,0.00,VWS V14.00,2013-01-01 12:58:00,
2013-01-01 07:03:00,35.0,33.2,30.02,NNE,24,3.0,8.0,93,0.00,,OVC007,0.00,VWS V14.00,2013-01-01 13:03:00,
2013-01-01 07:08:00,35.0,33.2,30.02,North,355,4.0,10.0,93,0.00,,OVC007,0.00,VWS V14.00,2013-01-01 13:08:00,
2013-01-01 07:18:00,35.2,33.4,30.05,North,355,4.0,9.0,93,0.00,,OVC007,0.00,VWS V14.00,2013-01-01 13:18:00,
2013-01-01 07:28:00,35.2,33.4,30.05,North,360,5.0,15.0,93,0.00,,OVC007,0.00,VWS V14.00,2013-01-01 13:28:00,
2013-01-01 07:38:00,35.3,33.5,30.05,North,11,4.0,11.0,93,0.00,,OVC007,0.00,VWS V14.00,2013-01-01 13:38:00,
2013-01-01 07:43:00,35.3,33.5,30.05,North,11,9.0,11.0,93,0.00,,OVC007,0.00,VWS V14.00,2013-01-01 13:43:00,
2013-01-01 07:53:00,35.3,33.2,30.06,North,355,9.0,12.0,92,0.00,,OVC007,0.00,VWS V14.00,2013-01-01 13:53:00,
2013-01-01 07:58:00,35.3,33.2,30.06,North,360,6.0,13.0,92,0.00,,OVC007,0.00,VWS V14.00,2013-01-01 13:58:00,
2013-01-01 08:03:00,35.3,33.2,30.06,North,5,9.0,13.0,92,0.00,,OVC007,0.00,VWS V14.00,2013-01-01 14:03:00,
2013-01-01 08:13:00,35.3,33.2,30.06,NNE,26,13.0,14.0,92,0.00,,OVC007,0.00,VWS V14.00,2013-01-01 14:13:00,
2013-01-01 08:18:00,35.3,33.2,30.06,NNE,26,5.0,13.0,92,0.00,,OVC007,0.00,VWS V14.00,2013-01-01 14:18:00,
2013-01-01 08:23:00,35.3,33.2,30.06,North,355,9.0,13.0,92,0.00,,OVC007,0.00,VWS V14.00,2013-01-01 14:23:00,
2013-01-01 08:28:00,35.5,33.4,30.06,North,355,8.0,14.0,92,0.00,,OVC007,0.00,VWS V14.00,2013-01-01 14:28:00,
2013-01-01 08:33:00,35.5,33.4,30.08,North,9,3.0,10.0,92,0.00,,OVC007,0.00,VWS V14.00,2013-01-01 14:33:00,
2013-01-01 08:43:00,35.5,33.1,30.08,NNW,327,3.0,10.0,91,0.00,,OVC007,0.00,VWS V14.00,2013-01-01 14:43:00,
2013-01-01 08:53:00,35.6,33.2,30.09,North,349,7.0,11.0,91,0.00,,OVC007,0.00,VWS V14.00,2013-01-01 14:53:00,
2013-01-01 08:58:00,35.5,33.1,30.09,North,349,5.0,9.0,91,0.00,,OVC007,0.00,VWS V14.00,2013-01-01 14:58:00,
2013-01-01 09:03:00,35.5,33.1,30.08,NNW,348,7.0,14.0,91,0.00,,OVC007,0.00,VWS V14.00,2013-01-01 15:03:00,
2013-01-01 09:13:00,35.5,33.1,30.08,North,360,11.0,12.0,91,0.00,,OVC007,0.00,VWS V14.00,2013-01-01 15:13:00,
2013-01-01 09:18:00,35.5,33.1,30.07,North,11,7.0,14.0,91,0.00,,OVC007,0.00,VWS V14.00,2013-01-01 15:18:00,
2013-01-01 09:28:00,35.5,32.9,30.07,North,5,2.0,12.0,90,0.00,,OVC007,0.00,VWS V14.00,2013-01-01 15:28:00,
2013-01-01 09:33:00,35.5,32.9,30.08,North,5,9.0,13.0,90,0.00,,OVC007,0.00,VWS V14.00,2013-01-01 15:33:00,
2013-01-01 09:38:00,35.5,32.9,30.08,North,360,11.0,14.0,90,0.00,,OVC007,0.00,VWS V14.00,2013-01-01 15:38:00,
2013-01-01 09:43:00,35.5,32.9,30.08,North,355,7.0,14.0,90,0.00,,OVC007,0.00,VWS V14.00,2013-01-01 15:43:00,
2013-01-01 09:53:00,35.6,32.7,30.08,North,355,8.0,13.0,89,0.00,,OVC009,0.00,VWS V14.00,2013-01-01 15:53:00,
2013-01-01 09:58:00,35.5,32.6,30.08,North,355,8.0,13.0,89,0.00,,OVC009,0.00,VWS V14.00,2013-01-01 15:58:00,
2013-01-01 10:03:00,35.5,32.6,30.08,North,355,8.0,14.0,89,0.00,,OVC012,0.00,VWS V14.00,2013-01-01 16:03:00,
2013-01-01 10:08:00,35.6,32.7,30.08,North,355,6.0,11.0,89,0.00,,OVC012,0.00,VWS V14.00,2013-01-01 16:08:00,
2013-01-01 10:13:00,35.5,32.6,30.08,North,360,6.0,13.0,89,0.00,,OVC012,0.00,VWS V14.00,2013-01-01 16:13:00,
2013-01-01 10:18:00,35.5,32.6,30.09,North,360,11.0,12.0,89,0.00,,OVC009,0.00,VWS V14.00,2013-01-01 16:18:00,
2013-01-01 10:23:00,35.5,31.7,30.09,North,355,5.0,16.0,86,0.00,,OVC009,0.00,VWS V14.00,2013-01-01 16:23:00,
2013-01-01 10:28:00,35.3,32.4,30.09,North,360,7.0,15.0,89,0.00,,OVC009,0.00,VWS V14.00,2013-01-01 16:28:00,
2013-01-01 10:33:00,35.3,32.1,30.11,North,351,8.0,15.0,88,0.00,,OVC012,0.00,VWS V14.00,2013-01-01 16:33:00,
2013-01-01 10:38:00,35.5,32.3,30.11,North,355,7.0,10.0,88,0.00,,OVC012,0.00,VWS V14.00,2013-01-01 16:38:00,
2013-01-01 10:43:00,35.5,32.3,30.11,NNE,17,3.0,12.0,88,0.00,,OVC012,0.00,VWS V14.00,2013-01-01 16:43:00,
2013-01-01 10:48:00,35.5,32.3,30.13,North,5,12.0,12.0,88,0.00,,OVC012,0.00,VWS V14.00,2013-01-01 16:48:00,
2013-01-01 10:53:00,35.3,32.1,30.13,North,355,8.0,13.0,88,0.00,,OVC012,0.00,VWS V14.00,2013-01-01 16:53:00,
2013-01-01 10:58:00,35.2,32.0,30.13,NNW,344,6.0,9.0,88,0.00,,OVC012,0.00,VWS V14.00,2013-01-01 16:58:00,
2013-01-01 11:03:00,35.0,31.8,30.12,North,355,6.0,11.0,88,0.00,,OVC012,0.00,VWS V14.00,2013-01-01 17:03:00,
2013-01-01 11:13:00,34.7,31.8,30.12,NW,323,7.0,11.0,89,0.00,,OVC012,0.00,VWS V14.00,2013-01-01 17:13:00,
2013-01-01 11:18:00,34.7,31.8,30.13,NNW,348,5.0,8.0,89,0.00,,OVC012,0.00,VWS V14.00,2013-01-01 17:18:00,
2013-01-01 11:23:00,34.6,31.7,30.13,NNW,341,5.0,14.0,89,0.00,,OVC012,0.00,VWS V14.00,2013-01-01 17:23:00,
2013-01-01 11:28:00,34.7,31.8,30.13,NNW,344,5.0,11.0,89,0.00,,OVC012,0.00,VWS V14.00,2013-01-01 17:28:00,
2013-01-01 11:33:00,34.6,31.7,30.11,NW,306,4.0,11.0,89,0.00,,OVC075,0.00,VWS V14.00,2013-01-01 17:33:00,
2013-01-01 11:38:00,34.7,31.8,30.11,North,355,6.0,8.0,89,0.00,,OVC075,0.00,VWS V14.00,2013-01-01 17:38:00,
2013-01-01 11:43:00,34.7,31.8,30.11,NW,324,10.0,10.0,89,0.00,,OVC075,0.00,VWS V14.00,2013-01-01 17:43:00,
2013-01-01 11:53:00,34.6,31.7,30.10,NNW,331,5.0,11.0,89,0.00,,OVC075,0.00,VWS V14.00,2013-01-01 17:53:00,
2013-01-01 11:58:00,34.6,31.7,30.10,North,355,8.0,11.0,89,0.00,,OVC075,0.00,VWS V14.00,2013-01-01 17:58:00,
2013-01-01 12:08:00,34.7,31.8,30.08,North,350,2.0,11.0,89,0.00,,,0.00,VWS V14.00,2013-01-01 18:08:00,
2013-01-01 12:13:00,34.6,31.4,30.08,North,9,12.0,15.0,88,0.00,,,0.00,VWS V14.00,2013-01-01 18:13:00,
2013-01-01 12:18:00,34.6,31.4,30.06,North,360,7.0,12.0,88,0.00,,OVC075,0.00,VWS V14.00,2013-01-01 18:18:00,
2013-01-01 12:23:00,34.4,31.2,30.06,NNW,327,8.0,13.0,88,0.00,,OVC075,0.00,VWS V14.00,2013-01-01 18:23:00,
2013-01-01 12:33:00,34.4,30.9,30.07,North,355,6.0,12.0,87,0.00,,,0.00,VWS V14.00,2013-01-01 18:33:00,
2013-01-01 12:38:00,34.4,30.6,30.07,North,355,11.0,14.0,86,0.00,,,0.00,VWS V14.00,2013-01-01 18:38:00,
2013-01-01 12:43:00,34.3,30.6,30.07,North,355,5.0,11.0,86,0.00,,,0.00,VWS V14.00,2013-01-01 18:43:00,
2013-01-01 12:48:00,34.1,30.4,30.08,North,355,9.0,16.0,86,0.00,,OVC033,0.00,VWS V14.00,2013-01-01 18:48:00,
2013-01-01 12:53:00,34.3,30.6,30.08,North,5,5.0,11.0,86,0.00,,OVC033,0.00,VWS V14.00,2013-01-01 18:53:00,
2013-01-01 12:58:00,34.1,30.1,30.08,NNW,346,8.0,11.0,85,0.00,,OVC033,0.00,VWS V14.00,2013-01-01 18:58:00,
2013-01-01 13:03:00,34.1,30.1,30.07,North,355,7.0,13.0,85,0.00,,OVC033,0.00,VWS V14.00,2013-01-01 19:03:00,
2013-01-01 13:08:00,34.1,30.1,30.07,North,360,6.0,15.0,85,0.00,,OVC033,0.00,VWS V14.00,2013-01-01 19:08:00,
2013-01-01 13:13:00,34.0,29.7,30.07,North,360,8.0,13.0,84,0.00,,OVC033,0.00,VWS V14.00,2013-01-01 19:13:00,
2013-01-01 13:18:00,33.8,29.5,30.04,North,360,7.0,15.0,84,0.00,,,0.00,VWS V14.00,2013-01-01 19:18:00,
2013-01-01 13:23:00,33.7,29.4,30.04,North,5,8.0,15.0,84,0.00,,,0.00,VWS V14.00,2013-01-01 19:23:00,
2013-01-01 13:28:00,33.4,29.1,30.04,North,5,14.0,16.0,84,0.00,,,0.00,VWS V14.00,2013-01-01 19:28:00,
2013-01-01 13:33:00,33.4,29.1,30.06,North,360,11.0,17.0,84,0.00,,OVC014,0.00,VWS V14.00,2013-01-01 19:33:00,
2013-01-01 13:38:00,33.2,28.9,30.06,North,360,12.0,17.0,84,0.00,,OVC014,0.00,VWS V14.00,2013-01-01 19:38:00,
2013-01-01 13:43:00,33.2,28.9,30.06,North,355,7.0,14.0,84,0.00,,OVC014,0.00,VWS V14.00,2013-01-01 19:43:00,
2013-01-01 13:48:00,33.1,28.8,30.07,North,355,10.0,17.0,84,0.00,,OVC033,0.00,VWS V14.00,2013-01-01 19:48:00,
2013-01-01 13:53:00,33.1,28.8,30.07,NNW,345,7.0,14.0,84,0.00,,OVC033,0.00,VWS V14.00,2013-01-01 19:53:00,
2013-01-01 14:03:00,32.9,28.0,30.07,North,355,6.0,17.0,82,0.00,,OVC033,0.00,VWS V14.00,2013-01-01 20:03:00,
2013-01-01 14:08:00,32.9,28.0,30.07,North,360,10.0,14.0,82,0.00,,OVC033,0.00,VWS V14.00,2013-01-01 20:08:00,
2013-01-01 14:13:00,32.8,28.2,30.07,North,360,5.0,13.0,83,0.00,,OVC033,0.00,VWS V14.00,2013-01-01 20:13:00,
2013-01-01 14:23:00,32.5,27.6,30.06,North,10,6.0,13.0,82,0.00,,OVC033,0.00,VWS V14.00,2013-01-01 20:23:00,
2013-01-01 14:28:00,32.4,27.2,30.06,NNW,346,8.0,15.0,81,0.00,,OVC033,0.00,VWS V14.00,2013-01-01 20:28:00,
2013-01-01 14:33:00,32.2,27.0,30.07,North,355,8.0,14.0,81,0.00,,OVC040,0.00,VWS V14.00,2013-01-01 20:33:00,
2013-01-01 14:38:00,32.2,26.7,30.07,NNE,12,12.0,12.0,80,0.00,,OVC040,0.00,VWS V14.00,2013-01-01 20:38:00,
2013-01-01 14:43:00,32.1,26.6,30.07,North,355,3.0,13.0,80,0.00,,OVC040,0.00,VWS V14.00,2013-01-01 20:43:00,
2013-01-01 14:53:00,32.1,26.9,30.08,NNW,346,4.0,11.0,81,0.00,,OVC040,0.00,VWS V14.00,2013-01-01 20:53:00,
2013-01-01 15:03:00,31.9,26.7,30.08,North,355,10.0,12.0,81,0.00,,OVC040,0.00,VWS V14.00,2013-01-01 21:03:00,
2013-01-01 15:08:00,31.8,26.4,30.08,North,355,9.0,11.0,80,0.00,,OVC040,0.00,VWS V14.00,2013-01-01 21:08:00,
2013-01-01 15:13:00,31.6,26.1,30.08,NNW,336,4.0,13.0,80,0.00,,OVC040,0.00,VWS V14.00,2013-01-01 21:13:00,
2013-01-01 15:18:00,31.6,26.1,30.08,NNW,341,9.0,15.0,80,0.00,,OVC017,0.00,VWS V14.00,2013-01-01 21:18:00,
2013-01-01 15:23:00,31.6,26.1,30.08,North,5,8.0,12.0,80,0.00,,OVC017,0.00,VWS V14.00,2013-01-01 21:23:00,
2013-01-01 15:28:00,31.5,26.0,30.08,NNW,348,10.0,15.0,80,0.00,,OVC017,0.00,VWS V14.00,2013-01-01 21:28:00,
2013-01-01 15:33:00,31.5,25.8,30.10,North,360,5.0,14.0,79,0.00,,OVC040,0.00,VWS V14.00,2013-01-01 21:33:00,
2013-01-01 15:43:00,31.6,25.9,30.10,North,350,5.0,12.0,79,0.00,,OVC040,0.00,VWS V14.00,2013-01-01 21:43:00,
2013-01-01 15:48:00,31.8,26.4,30.10,North,5,6.0,11.0,80,0.00,,OVC032,0.00,VWS V14.00,2013-01-01 21:48:00,
2013-01-01 15:53:00,31.8,26.4,30.10,NNW,331,5.0,11.0,80,0.00,,OVC032,0.00,VWS V14.00,2013-01-01 21:53:00,
2013-01-01 16:03:00,31.8,26.4,30.11,North,355,7.0,11.0,80,0.00,,OVC032,0.00,VWS V14.00,2013-01-01 22:03:00,
2013-01-01 16:08:00,31.8,26.0,30.11,North,355,10.0,10.0,79,0.00,,OVC032,0.00,VWS V14.00,2013-01-01 22:08:00,
2013-01-01 16:13:00,31.6,25.9,30.11,North,5,11.0,11.0,79,0.00,,OVC032,0.00,VWS V14.00,2013-01-01 22:13:00,
2013-01-01 16:18:00,31.6,25.5,30.12,North,355,6.0,11.0,78,0.00,,OVC032,0.00,VWS V14.00,2013-01-01 22:18:00,
2013-01-01 16:23:00,31.5,25.1,30.12,NNW,336,5.0,10.0,77,0.00,,OVC032,0.00,VWS V14.00,2013-01-01 22:23:00,
2013-01-01 16:28:00,31.5,25.1,30.12,North,351,6.0,11.0,77,0.00,,OVC032,0.00,VWS V14.00,2013-01-01 22:28:00,
2013-01-01 16:33:00,31.6,25.2,30.13,NNW,344,4.0,10.0,77,0.00,,OVC034,0.00,VWS V14.00,2013-01-01 22:33:00,
2013-01-01 16:38:00,31.6,25.2,30.13,NW,323,7.0,10.0,77,0.00,,OVC034,0.00,VWS V14.00,2013-01-01 22:38:00,
2013-01-01 16:43:00,31.6,24.9,30.13,North,355,9.0,13.0,76,0.00,,OVC034,0.00,VWS V14.00,2013-01-01 22:43:00,
2013-01-01 16:48:00,31.5,24.2,30.12,North,349,3.0,13.0,74,0.00,,OVC034,0.00,VWS V14.00,2013-01-01 22:48:00,
2013-01-01 16:53:00,31.5,24.5,30.12,NNW,345,5.0,10.0,75,0.00,,OVC034,0.00,VWS V14.00,2013-01-01 22:53:00,
2013-01-01 17:03:00,31.3,24.3,30.11,North,5,9.0,12.0,75,0.00,,OVC034,0.00,VWS V14.00,2013-01-01 23:03:00,
2013-01-01 17:13:00,31.2,24.5,30.11,North,355,5.0,12.0,76,0.00,,OVC034,0.00,VWS V14.00,2013-01-01 23:13:00,
2013-01-01 17:18:00,31.2,24.5,30.13,North,5,6.0,12.0,76,0.00,,OVC034,0.00,VWS V14.00,2013-01-01 23:18:00,
2013-01-01 17:23:00,31.0,23.7,30.13,NNW,342,7.0,14.0,74,0.00,,OVC034,0.00,VWS V14.00,2013-01-01 23:23:00,
2013-01-01 17:28:00,31.0,23.4,30.13,North,9,6.0,13.0,73,0.00,,OVC034,0.00,VWS V14.00,2013-01-01 23:28:00,
2013-01-01 17:38:00,30.9,23.3,30.13,NNW,346,6.0,12.0,73,0.00,,OVC038,0.00,VWS V14.00,2013-01-01 23:38:00,
2013-01-01 17:48:00,30.7,23.4,30.13,North,355,5.0,12.0,74,0.00,,OVC038,0.00,VWS V14.00,2013-01-01 23:48:00,
2013-01-01 17:53:00,30.7,22.8,30.13,North,355,5.0,10.0,72,0.00,,OVC038,0.00,VWS V14.00,2013-01-01 23:53:00,
2013-01-01 17:58:00,30.7,22.8,30.13,NNW,347,3.0,10.0,72,0.00,,OVC038,0.00,VWS V14.00,2013-01-01 23:58:00,
2013-01-01 18:03:00,30.7,23.4,30.14,North,360,6.0,12.0,74,0.00,,OVC038,0.00,VWS V14.00,2013-01-02 00:03:00,
2013-01-01 18:08:00,30.6,23.0,30.14,NNW,334,6.0,10.0,73,0.00,,OVC038,0.00,VWS V14.00,2013-01-02 00:08:00,
2013-01-01 18:13:00,30.6,23.3,30.14,North,355,5.0,10.0,74,0.00,,OVC038,0.00,VWS V14.00,2013-01-02 00:13:00,
2013-01-01 18:18:00,30.7,23.7,30.14,North,360,7.0,12.0,75,0.00,,OVC060,0.00,VWS V14.00,2013-01-02 00:18:00,
2013-01-01 18:23:00,30.6,23.3,30.14,North,11,9.0,13.0,74,0.00,,OVC060,0.00,VWS V14.00,2013-01-02 00:23:00,
2013-01-01 18:28:00,30.4,23.1,30.14,North,11,7.0,12.0,74,0.00,,OVC060,0.00,VWS V14.00,2013-01-02 00:28:00,
2013-01-01 18:33:00,30.4,23.1,30.15,NNE,22,6.0,11.0,74,0.00,,OVC060,0.00,VWS V14.00,2013-01-02 00:33:00,
2013-01-01 18:38:00,30.3,23.0,30.15,NNW,344,4.0,13.0,74,0.00,,OVC060,0.00,VWS V14.00,2013-01-02 00:38:00,
2013-01-01 18:48:00,30.1,23.1,30.16,North,355,3.0,10.0,75,0.00,,OVC060,0.00,VWS V14.00,2013-01-02 00:48:00,
2013-01-01 18:58:00,29.8,22.9,30.16,North,360,5.0,10.0,75,0.00,,OVC060,0.00,VWS V14.00,2013-01-02 00:58:00,
2013-01-01 19:03:00,29.8,22.9,30.16,North,360,1.0,8.0,75,0.00,,OVC060,0.00,VWS V14.00,2013-01-02 01:03:00,
2013-01-01 19:13:00,29.7,22.1,30.16,North,5,5.0,11.0,73,0.00,,OVC060,0.00,VWS V14.00,2013-01-02 01:13:00,
2013-01-01 19:18:00,29.7,22.1,30.17,North,360,5.0,11.0,73,0.00,,OVC060,0.00,VWS V14.00,2013-01-02 01:18:00,
2013-01-01 19:23:00,29.5,21.6,30.17,North,11,7.0,13.0,72,0.00,,OVC060,0.00,VWS V14.00,2013-01-02 01:23:00,
2013-01-01 19:28:00,29.4,21.5,30.17,North,5,8.0,12.0,72,0.00,,OVC060,0.00,VWS V14.00,2013-01-02 01:28:00,
2013-01-01 19:33:00,29.4,21.5,30.17,North,355,9.0,12.0,72,0.00,,BKN065,0.00,VWS V14.00,2013-01-02 01:33:00,
2013-01-01 19:38:00,29.4,21.5,30.17,North,5,8.0,10.0,72,0.00,,BKN065,0.00,VWS V14.00,2013-01-02 01:38:00,
2013-01-01 19:43:00,29.3,21.4,30.17,North,355,7.0,12.0,72,0.00,,BKN065,0.00,VWS V14.00,2013-01-02 01:43:00,
2013-01-01 19:48:00,29.3,21.1,30.17,North,350,10.0,14.0,71,0.00,,BKN065,0.00,VWS V14.00,2013-01-02 01:48:00,
2013-01-01 19:58:00,29.1,20.9,30.17,North,360,10.0,10.0,71,0.00,,BKN065,0.00,VWS V14.00,2013-01-02 01:58:00,
2013-01-01 20:03:00,29.1,20.9,30.16,North,5,7.0,12.0,71,0.00,,BKN065,0.00,VWS V14.00,2013-01-02 02:03:00,
2013-01-01 20:08:00,29.0,20.8,30.16,North,355,4.0,11.0,71,0.00,,BKN065,0.00,VWS V14.00,2013-01-02 02:08:00,
2013-01-01 20:13:00,29.0,20.8,30.16,North,355,6.0,11.0,71,0.00,,BKN065,0.00,VWS V14.00,2013-01-02 02:13:00,
2013-01-01 20:18:00,28.8,20.9,30.17,North,360,6.0,13.0,72,0.00,,BKN065,0.00,VWS V14.00,2013-01-02 02:18:00,
2013-01-01 20:28:00,28.7,20.8,30.17,North,350,6.0,13.0,72,0.00,,BKN065,0.00,VWS V14.00,2013-01-02 02:28:00,
2013-01-01 20:38:00,28.5,21.0,30.16,North,350,6.0,12.0,73,0.00,,CLR,0.00,VWS V14.00,2013-01-02 02:38:00,
2013-01-01 20:43:00,28.5,20.6,30.16,North,355,5.0,12.0,72,0.00,,CLR,0.00,VWS V14.00,2013-01-02 02:43:00,
2013-01-01 20:53:00,28.5,19.3,30.17,North,360,6.0,11.0,68,0.00,,CLR,0.00,VWS V14.00,2013-01-02 02:53:00,
2013-01-01 20:58:00,28.4,19.2,30.17,North,5,7.0,11.0,68,0.00,,CLR,0.00,VWS V14.00,2013-01-02 02:58:00,
2013-01-01 21:03:00,28.4,20.2,30.16,North,355,6.0,10.0,71,0.00,,CLR,0.00,VWS V14.00,2013-01-02 03:03:00,
2013-01-01 21:08:00,28.4,20.9,30.16,North,360,5.0,10.0,73,0.00,,CLR,0.00,VWS V14.00,2013-01-02 03:08:00,
2013-01-01 21:18:00,28.2,20.0,30.17,NNE,29,5.0,12.0,71,0.00,,CLR,0.00,VWS V14.00,2013-01-02 03:18:00,
2013-01-01 21:23:00,28.1,19.6,30.17,North,9,8.0,10.0,70,0.00,,CLR,0.00,VWS V14.00,2013-01-02 03:23:00,
2013-01-01 21:28:00,28.1,19.6,30.17,North,360,4.0,12.0,70,0.00,,CLR,0.00,VWS V14.00,2013-01-02 03:28:00,
2013-01-01 21:33:00,28.1,19.3,30.18,North,11,5.0,12.0,69,0.00,,CLR,0.00,VWS V14.00,2013-01-02 03:33:00,
2013-01-01 21:38:00,27.9,18.7,30.18,NNE,23,9.0,14.0,68,0.00,,CLR,0.00,VWS V14.00,2013-01-02 03:38:00,
2013-01-01 21:43:00,27.9,18.7,30.18,North,355,6.0,11.0,68,0.00,,CLR,0.00,VWS V14.00,2013-01-02 03:43:00,
2013-01-01 21:48:00,27.9,19.1,30.18,North,355,8.0,11.0,69,0.00,,CLR,0.00,VWS V14.00,2013-01-02 03:48:00,
2013-01-01 21:53:00,27.9,19.1,30.18,North,355,7.0,11.0,69,0.00,,CLR,0.00,VWS V14.00,2013-01-02 03:53:00,
2013-01-01 21:58:00,27.9,19.1,30.18,North,355,4.0,11.0,69,0.00,,CLR,0.00,VWS V14.00,2013-01-02 03:58:00,
2013-01-01 22:08:00,27.8,19.0,30.18,North,9,4.0,11.0,69,0.00,,CLR,0.00,VWS V14.00,2013-01-02 04:08:00,
2013-01-01 22:13:00,27.8,18.6,30.18,North,360,7.0,12.0,68,0.00,,CLR,0.00,VWS V14.00,2013-01-02 04:13:00,
2013-01-01 22:23:00,27.8,19.0,30.18,NNE,13,10.0,13.0,69,0.00,,CLR,0.00,VWS V14.00,2013-01-02 04:23:00,
2013-01-01 22:28:00,27.8,19.0,30.18,North,355,6.0,12.0,69,0.00,,CLR,0.00,VWS V14.00,2013-01-02 04:28:00,
2013-01-01 22:33:00,27.6,19.1,30.19,NNW,345,4.0,13.0,70,0.00,,CLR,0.00,VWS V14.00,2013-01-02 04:33:00,
2013-01-01 22:38:00,27.6,18.1,30.19,North,5,9.0,12.0,67,0.00,,CLR,0.00,VWS V14.00,2013-01-02 04:38:00,
2013-01-01 22:43:00,27.6,19.4,30.19,North,5,4.0,12.0,71,0.00,,CLR,0.00,VWS V14.00,2013-01-02 04:43:00,
2013-01-01 22:48:00,27.6,19.8,30.19,NNW,348,9.0,10.0,72,0.00,,CLR,0.00,VWS V14.00,2013-01-02 04:48:00,
2013-01-01 22:53:00,27.6,19.8,30.19,North,355,4.0,9.0,72,0.00,,CLR,0.00,VWS V14.00,2013-01-02 04:53:00,
2013-01-01 22:58:00,27.5,19.7,30.19,North,5,6.0,10.0,72,0.00,,CLR,0.00,VWS V14.00,2013-01-02 04:58:00,
2013-01-01 23:03:00,27.5,20.0,30.19,North,351,4.0,9.0,73,0.00,,CLR,0.00,VWS V14.00,2013-01-02 05:03:00,
2013-01-01 23:08:00,27.5,19.7,30.19,North,5,5.0,13.0,72,0.00,,CLR,0.00,VWS V14.00,2013-01-02 05:08:00,
2013-01-01 23:13:00,27.3,19.5,30.19,North,5,8.0,11.0,72,0.00,,CLR,0.00,VWS V14.00,2013-01-02 05:13:00,
2013-01-01 23:18:00,27.3,19.5,30.19,North,355,4.0,11.0,72,0.00,,CLR,0.00,VWS V14.00,2013-01-02 05:18:00,
2013-01-01 23:23:00,27.3,19.8,30.19,NNE,17,8.0,9.0,73,0.00,,CLR,0.00,VWS V14.00,2013-01-02 05:23:00,
2013-01-01 23:33:00,27.2,19.4,30.19,North,355,4.0,9.0,72,0.00,,CLR,0.00,VWS V14.00,2013-01-02 05:33:00,
2013-01-01 23:38:00,27.2,19.4,30.19,NNW,348,4.0,12.0,72,0.00,,CLR,0.00,VWS V14.00,2013-01-02 05:38:00,
2013-01-01 23:43:00,27.2,19.7,30.19,NNW,342,4.0,12.0,73,0.00,,CLR,0.00,VWS V14.00,2013-01-02 05:43:00,
2013-01-01 23:53:00,27.0,19.5,30.19,North,5,6.0,10.0,73,0.00,,CLR,0.00,VWS V14.00,2013-01-02 05:53:00,